Time;durP1;ratioP1;P1;durP2;ratioP2;P2;SDS_P1;SDS_P2;PMS_P1;PMS_P2;Temp;Humidity;BMP_temperature;BMP_pressure;BME280_temperature;BME280_humidity;BME280_pressure;Samples;Min_cycle;Max_cycle;Signal;HPM_P1;HPM_P2
2022/12/08 00:59:37;;;;;;;2.53;1.80;;;6.00;99.90;;;;;;6155327;22;2442963;-87
2022/12/08 01:02:08;;;;;;;2.80;1.83;;;6.10;99.90;;;;;;6236600;23;20202;-87
2022/12/08 01:04:40;;;;;;;3.13;1.80;;;6.10;99.90;;;;;;6234537;23;20645;-87
2022/12/08 01:07:11;;;;;;;2.03;1.67;;;6.10;99.90;;;;;;6237541;23;20278;-87
2022/12/08 01:09:47;;;;;;;2.87;1.60;;;6.10;99.90;;;;;;6247170;23;20176;-87
2022/12/08 01:12:22;;;;;;;3.07;1.60;;;6.10;99.90;;;;;;6248676;23;20211;-95
2022/12/08 01:14:55;;;;;;;2.53;1.57;;;6.10;99.90;;;;;;6238796;23;20268;-90
2022/12/08 01:17:31;;;;;;;1.80;1.33;;;6.10;99.90;;;;;;6238690;23;20179;-90
2022/12/08 01:20:02;;;;;;;4.50;1.60;;;6.00;99.90;;;;;;6238150;23;20299;-90
2022/12/08 01:22:35;;;;;;;1.97;1.50;;;6.00;99.90;;;;;;6236761;23;20672;-91
2022/12/08 01:25:09;;;;;;;4.43;1.63;;;6.00;99.90;;;;;;6241303;23;20237;-90
2022/12/08 01:27:41;;;;;;;5.40;1.60;;;6.00;99.90;;;;;;6239812;23;20212;-89
2022/12/08 01:30:16;;;;;;;2.60;1.40;;;6.00;99.90;;;;;;6238792;23;20176;-89
2022/12/08 01:32:49;;;;;;;2.30;1.60;;;6.00;99.90;;;;;;6238499;23;20167;-89
2022/12/08 01:35:20;;;;;;;1.83;1.37;;;6.00;99.90;;;;;;6238387;23;20168;-89
2022/12/08 01:37:52;;;;;;;1.40;1.13;;;6.00;99.90;;;;;;6235853;23;20175;-89
2022/12/08 01:40:24;;;;;;;3.00;1.60;;;6.00;99.90;;;;;;6239351;23;20164;-90
2022/12/08 01:42:55;;;;;;;1.80;1.50;;;6.00;99.90;;;;;;6238446;23;20481;-89
2022/12/08 01:45:30;;;;;;;1.73;1.40;;;6.00;99.90;;;;;;6244038;23;20179;-90
2022/12/08 01:48:05;;;;;;;2.37;1.57;;;6.00;99.90;;;;;;6250965;23;20246;-90
2022/12/08 01:50:37;;;;;;;1.93;1.50;;;6.00;99.90;;;;;;6250266;23;20163;-90
2022/12/08 01:53:13;;;;;;;2.13;1.63;;;6.00;99.90;;;;;;6245890;23;20167;-89
2022/12/08 01:55:47;;;;;;;2.60;1.40;;;6.00;99.90;;;;;;6244872;23;20202;-90
2022/12/08 01:58:21;;;;;;;2.23;1.53;;;6.00;99.90;;;;;;6241516;23;20239;-90
2022/12/08 02:00:55;;;;;;;1.43;1.20;;;6.00;99.90;;;;;;6229713;23;20258;-90
2022/12/08 02:03:30;;;;;;;2.27;1.50;;;6.00;99.90;;;;;;6231851;23;20199;-90
2022/12/08 02:06:02;;;;;;;3.73;1.50;;;6.00;99.90;;;;;;6230200;23;20216;-90
2022/12/08 02:08:35;;;;;;;1.87;1.37;;;6.00;99.90;;;;;;6231327;23;20212;-89
2022/12/08 02:11:10;;;;;;;1.43;1.27;;;6.00;99.90;;;;;;6232847;23;20204;-89
2022/12/08 02:13:42;;;;;;;1.90;1.20;;;6.00;99.90;;;;;;6235144;23;20176;-90
2022/12/08 02:16:27;;;;;;;1.57;1.23;;;5.90;99.90;;;;;;6231148;23;20216;-89
2022/12/08 02:19:19;;;;;;;8.67;1.40;;;5.90;99.90;;;;;;6233231;23;20179;-88
2022/12/08 02:22:05;;;;;;;2.33;1.30;;;5.90;99.90;;;;;;6233154;23;20175;-89
2022/12/08 02:24:43;;;;;;;2.70;1.30;;;5.90;99.90;;;;;;6230178;23;20178;-88
2022/12/08 02:27:39;;;;;;;1.20;1.03;;;5.90;99.90;;;;;;6230301;23;20533;-89
2022/12/08 02:30:22;;;;;;;1.17;1.00;;;5.90;99.90;;;;;;6224427;23;20183;-90
2022/12/08 02:33:26;;;;;;;1.67;1.37;;;5.90;99.90;;;;;;6222191;23;20248;-90
2022/12/08 02:36:05;;;;;;;1.37;0.87;;;5.90;99.90;;;;;;6225179;23;20231;-90
2022/12/08 02:38:50;;;;;;;1.23;1.13;;;5.90;99.90;;;;;;6237020;23;20227;-90
2022/12/08 02:41:37;;;;;;;1.40;1.00;;;5.90;99.90;;;;;;6237410;23;20196;-89
2022/12/08 02:44:31;;;;;;;1.23;1.00;;;5.90;99.90;;;;;;6233985;23;20187;-96
2022/12/08 02:47:19;;;;;;;2.57;1.20;;;5.90;99.90;;;;;;6233737;23;20196;-96
2022/12/08 02:49:55;;;;;;;1.87;1.10;;;5.90;99.90;;;;;;6237084;23;20195;-96
2022/12/08 02:52:49;;;;;;;1.63;0.80;;;5.90;99.90;;;;;;6235806;23;20176;-95
2022/12/08 02:55:30;;;;;;;1.23;1.10;;;5.80;99.90;;;;;;6205863;23;20320;-96
2022/12/08 02:58:26;;;;;;;1.10;0.93;;;5.80;99.90;;;;;;6179184;23;20181;-95
2022/12/08 03:01:16;;;;;;;1.63;1.10;;;5.90;99.90;;;;;;6202411;23;20200;-94
2022/12/08 03:04:01;;;;;;;1.37;1.17;;;5.90;99.90;;;;;;6173803;23;20184;-94
2022/12/08 03:06:42;;;;;;;1.73;1.10;;;5.80;99.90;;;;;;6174631;23;20189;-92
2022/12/08 03:09:25;;;;;;;1.50;1.20;;;5.90;99.90;;;;;;6168070;23;20197;-93
2022/12/08 03:12:03;;;;;;;3.03;1.03;;;5.80;99.90;;;;;;6162647;23;20205;-94
2022/12/08 03:14:36;;;;;;;1.47;1.10;;;5.80;99.90;;;;;;6136120;23;20249;-94
2022/12/08 03:17:10;;;;;;;1.13;0.83;;;5.80;99.90;;;;;;6165814;23;20237;-93
2022/12/08 03:19:46;;;;;;;1.43;1.30;;;5.80;99.90;;;;;;6170147;23;20241;-94
2022/12/08 03:22:23;;;;;;;1.50;1.10;;;5.80;99.90;;;;;;6161914;23;20170;-93
2022/12/08 03:24:58;;;;;;;1.57;1.30;;;5.80;99.90;;;;;;6161178;23;20204;-94
2022/12/08 03:30:03;;;;;;;2.20;1.63;;;5.80;99.90;;;;;;6221646;23;20223;-93
2022/12/08 03:32:39;;;;;;;2.10;1.50;;;5.80;99.90;;;;;;6221238;23;20641;-94
2022/12/08 03:35:16;;;;;;;2.53;1.80;;;5.80;99.90;;;;;;6222165;23;20262;-94
2022/12/08 03:37:47;;;;;;;2.17;1.37;;;5.70;99.90;;;;;;6222442;23;20279;-93
2022/12/08 03:43:30;;;;;;;1.83;1.60;;;5.70;99.90;;;;;;6187169;22;20292;-93
2022/12/08 03:46:02;;;;;;;1.93;1.60;;;5.70;99.90;;;;;;6205918;23;20169;-95
2022/12/08 03:48:36;;;;;;;1.90;1.70;;;5.70;99.90;;;;;;6200863;23;20200;-93
2022/12/08 03:51:11;;;;;;;2.97;1.43;;;5.60;99.90;;;;;;6203700;23;20177;-94
2022/12/08 03:53:46;;;;;;;2.07;1.40;;;5.70;99.90;;;;;;6206593;23;20172;-93
2022/12/08 03:56:27;;;;;;;1.63;1.20;;;5.60;99.90;;;;;;6205280;23;20169;-95
2022/12/08 03:58:59;;;;;;;2.90;1.17;;;5.70;99.90;;;;;;6206976;23;20172;-96
2022/12/08 04:01:30;;;;;;;1.70;1.20;;;5.60;99.90;;;;;;6211642;23;20183;-95
2022/12/08 04:04:09;;;;;;;1.30;1.17;;;5.70;99.90;;;;;;6210420;23;20167;-95
2022/12/08 04:06:40;;;;;;;2.50;1.23;;;5.60;99.90;;;;;;6200604;23;20276;-92
2022/12/08 04:09:12;;;;;;;2.60;1.30;;;5.60;99.90;;;;;;6202775;23;20203;-93
2022/12/08 04:11:47;;;;;;;2.00;1.40;;;5.60;99.90;;;;;;6202313;23;20228;-94
2022/12/08 04:14:19;;;;;;;2.53;1.20;;;5.60;99.90;;;;;;6196365;23;20180;-90
2022/12/08 04:16:53;;;;;;;2.27;1.20;;;5.60;99.90;;;;;;6202342;23;20172;-91
2022/12/08 04:19:25;;;;;;;1.47;1.20;;;5.60;99.90;;;;;;6204846;23;20193;-90
2022/12/08 04:21:57;;;;;;;1.53;1.30;;;5.60;99.90;;;;;;6195149;23;20224;-89
2022/12/08 04:24:41;;;;;;;1.30;1.20;;;5.60;99.90;;;;;;6196653;23;20212;-91
2022/12/08 04:27:18;;;;;;;1.67;1.30;;;5.50;99.90;;;;;;6197421;23;20229;-90
2022/12/08 04:29:56;;;;;;;1.67;1.40;;;5.50;99.90;;;;;;6203072;23;20294;-90
2022/12/08 04:32:29;;;;;;;2.93;1.60;;;5.50;99.90;;;;;;6198582;23;20484;-90
2022/12/08 04:35:00;;;;;;;1.70;1.30;;;5.60;99.90;;;;;;6198614;23;20193;-90
2022/12/08 04:37:31;;;;;;;2.50;1.40;;;5.50;99.90;;;;;;6200854;23;20624;-89
2022/12/08 04:40:02;;;;;;;5.53;1.60;;;5.60;99.90;;;;;;6205335;23;20213;-90
2022/12/08 04:42:39;;;;;;;1.83;1.47;;;5.60;99.90;;;;;;6207231;23;20200;-89
2022/12/08 04:45:12;;;;;;;1.67;1.47;;;5.60;99.90;;;;;;6205613;23;20176;-90
2022/12/08 04:47:45;;;;;;;1.77;1.47;;;5.50;99.90;;;;;;6199979;23;20191;-91
2022/12/08 04:50:16;;;;;;;1.80;1.27;;;5.50;99.90;;;;;;6199468;23;20201;-89
2022/12/08 04:52:47;;;;;;;2.23;1.20;;;5.50;99.90;;;;;;6193768;23;20187;-90
2022/12/08 04:55:18;;;;;;;1.27;1.17;;;5.40;99.90;;;;;;6197531;23;20228;-90
2022/12/08 04:57:52;;;;;;;1.53;1.20;;;5.40;99.90;;;;;;6195890;23;20615;-90
2022/12/08 05:00:26;;;;;;;1.07;0.97;;;5.40;99.90;;;;;;6190717;23;20174;-89
2022/12/08 05:02:58;;;;;;;1.90;1.10;;;5.40;99.90;;;;;;6190825;23;20259;-90
2022/12/08 05:05:29;;;;;;;1.30;1.20;;;5.40;99.90;;;;;;6192486;23;20197;-89
2022/12/08 05:08:02;;;;;;;1.27;1.07;;;5.40;99.90;;;;;;6191139;23;20176;-89
2022/12/08 05:10:37;;;;;;;2.03;1.10;;;5.40;99.90;;;;;;6190697;23;20235;-90
2022/12/08 05:13:10;;;;;;;1.70;1.20;;;5.40;99.90;;;;;;6193612;23;20177;-89
2022/12/08 05:15:43;;;;;;;2.27;1.20;;;5.40;99.90;;;;;;6190064;23;20168;-90
2022/12/08 05:18:15;;;;;;;2.90;1.30;;;5.40;99.90;;;;;;6190107;23;20215;-90
2022/12/08 05:20:47;;;;;;;1.47;1.00;;;5.40;99.90;;;;;;6190848;23;20169;-90
2022/12/08 05:23:19;;;;;;;1.93;1.40;;;5.30;99.90;;;;;;6187869;23;20690;-90
2022/12/08 05:25:51;;;;;;;1.40;1.30;;;5.30;99.90;;;;;;6189895;23;20177;-90
2022/12/08 05:28:24;;;;;;;1.37;1.13;;;5.30;99.90;;;;;;6190241;23;20170;-90
2022/12/08 05:31:15;;;;;;;1.50;1.10;;;5.20;99.90;;;;;;6189194;23;20284;-90
2022/12/08 05:33:46;;;;;;;4.77;1.40;;;5.20;99.90;;;;;;6163368;23;20208;-90
2022/12/08 05:36:17;;;;;;;1.30;0.90;;;5.20;99.90;;;;;;6191603;23;20203;-90
2022/12/08 05:38:49;;;;;;;2.13;1.10;;;5.20;99.90;;;;;;6191180;23;20251;-90
2022/12/08 05:41:21;;;;;;;1.70;1.27;;;5.20;99.90;;;;;;6191779;23;20187;-90
2022/12/08 05:43:55;;;;;;;1.10;0.90;;;5.20;99.90;;;;;;6190980;23;20179;-90
2022/12/08 05:46:26;;;;;;;1.97;0.90;;;5.20;99.90;;;;;;6191780;23;20173;-89
2022/12/08 05:48:57;;;;;;;1.63;0.80;;;5.10;99.90;;;;;;6191428;23;20191;-89
2022/12/08 05:51:28;;;;;;;1.63;1.10;;;5.10;99.90;;;;;;6195767;23;20300;-90
2022/12/08 05:53:59;;;;;;;1.20;1.00;;;5.10;99.90;;;;;;6190161;23;20254;-90
2022/12/08 05:56:30;;;;;;;1.97;1.17;;;5.10;99.90;;;;;;6199010;23;20607;-90
2022/12/08 05:59:07;;;;;;;1.27;1.03;;;5.10;99.90;;;;;;6191718;23;20177;-89
2022/12/08 06:01:39;;;;;;;1.30;1.00;;;5.10;99.90;;;;;;6193791;23;20228;-90
2022/12/08 06:04:11;;;;;;;1.50;1.07;;;5.00;99.90;;;;;;6203319;23;20203;-90
2022/12/08 06:06:44;;;;;;;1.70;1.37;;;5.00;99.90;;;;;;6209076;23;20165;-90
2022/12/08 06:09:16;;;;;;;3.10;1.27;;;5.00;99.90;;;;;;6211959;23;20177;-91
2022/12/08 06:11:48;;;;;;;1.73;1.07;;;5.00;99.90;;;;;;6211150;23;20191;-92
2022/12/08 06:14:22;;;;;;;3.33;1.10;;;5.00;99.90;;;;;;6209792;23;20202;-91
2022/12/08 06:16:57;;;;;;;1.90;1.17;;;4.90;99.90;;;;;;6208857;23;20196;-91
2022/12/08 06:19:29;;;;;;;1.53;1.20;;;4.90;99.90;;;;;;6212896;23;20740;-92
2022/12/08 06:22:03;;;;;;;1.87;1.30;;;4.90;99.90;;;;;;6212261;23;20168;-91
2022/12/08 06:24:35;;;;;;;1.87;1.10;;;4.90;99.90;;;;;;6207150;23;20181;-91
2022/12/08 06:27:06;;;;;;;1.30;1.00;;;4.80;99.90;;;;;;6201967;23;20184;-89
2022/12/08 06:29:39;;;;;;;1.43;1.20;;;4.80;99.90;;;;;;6200814;23;20179;-91
2022/12/08 06:32:12;;;;;;;1.63;1.17;;;4.70;99.90;;;;;;6198695;23;20584;-90
2022/12/08 06:34:43;;;;;;;2.50;1.40;;;4.70;99.90;;;;;;6197242;23;20211;-91
2022/12/08 06:37:16;;;;;;;1.60;1.40;;;4.70;99.90;;;;;;6198872;23;20624;-91
2022/12/08 06:39:47;;;;;;;1.57;1.27;;;4.70;99.90;;;;;;6200438;23;20198;-90
2022/12/08 06:45:10;;;;;;;1.90;1.30;;;4.60;99.90;;;;;;6198342;23;20240;-90
2022/12/08 06:47:42;;;;;;;1.50;1.10;;;4.50;99.90;;;;;;6198613;23;20220;-91
2022/12/08 06:50:14;;;;;;;1.53;1.07;;;4.50;99.90;;;;;;6198597;23;20249;-91
2022/12/08 06:52:47;;;;;;;1.30;1.17;;;4.40;99.90;;;;;;6196478;23;20181;-92
2022/12/08 06:55:33;;;;;;;1.20;1.00;;;4.40;99.90;;;;;;6176026;23;20204;-91
2022/12/08 06:58:26;;;;;;;1.67;1.20;;;4.40;99.90;;;;;;6197920;23;20187;-90
2022/12/08 07:01:07;;;;;;;0.83;0.83;;;4.40;99.90;;;;;;6198128;23;20201;-91
2022/12/08 07:03:39;;;;;;;2.47;1.23;;;4.40;99.90;;;;;;6171869;23;20173;-90
2022/12/08 07:06:16;;;;;;;1.10;1.00;;;4.40;99.90;;;;;;6199512;23;20232;-91
2022/12/08 07:08:47;;;;;;;1.30;0.97;;;4.50;99.90;;;;;;6198000;23;20223;-91
2022/12/08 07:11:18;;;;;;;1.13;0.90;;;4.50;99.90;;;;;;6197991;23;20272;-91
2022/12/08 07:13:53;;;;;;;2.67;1.13;;;4.50;99.90;;;;;;6196930;23;20185;-91
2022/12/08 07:16:27;;;;;;;2.60;0.90;;;4.50;99.90;;;;;;6197024;23;20184;-90
2022/12/08 07:18:58;;;;;;;1.33;1.23;;;4.60;99.90;;;;;;6196786;23;20193;-91
2022/12/08 07:21:31;;;;;;;0.90;0.80;;;4.60;99.90;;;;;;6197118;23;20176;-90
2022/12/08 07:24:02;;;;;;;1.33;0.93;;;4.60;99.90;;;;;;6195896;23;20196;-91
2022/12/08 07:26:35;;;;;;;1.70;1.30;;;4.60;99.90;;;;;;6195294;23;20169;-91
2022/12/08 07:29:06;;;;;;;1.47;0.80;;;4.60;99.90;;;;;;6195813;23;20200;-91
2022/12/08 07:31:39;;;;;;;0.83;0.70;;;4.70;99.90;;;;;;6199083;23;20220;-91
2022/12/08 07:34:13;;;;;;;1.40;1.13;;;4.70;99.90;;;;;;6197155;23;20212;-91
2022/12/08 07:36:48;;;;;;;0.77;0.77;;;4.70;99.90;;;;;;6196788;23;20263;-91
2022/12/08 07:39:20;;;;;;;1.20;1.10;;;4.70;99.90;;;;;;6174679;23;20183;-90
2022/12/08 07:41:51;;;;;;;1.00;0.90;;;4.70;99.90;;;;;;6198795;23;20177;-91
2022/12/08 07:44:22;;;;;;;1.37;1.00;;;4.70;99.90;;;;;;6197694;23;20627;-91
2022/12/08 07:46:56;;;;;;;1.00;0.90;;;4.70;99.90;;;;;;6196467;23;20176;-91
2022/12/08 07:49:32;;;;;;;1.30;0.70;;;4.70;99.90;;;;;;6200087;23;20169;-90
2022/12/08 07:52:03;;;;;;;1.00;0.90;;;4.70;99.90;;;;;;6205339;23;20216;-91
2022/12/08 07:54:35;;;;;;;1.00;0.70;;;4.70;99.90;;;;;;6197116;23;20181;-90
2022/12/08 07:57:08;;;;;;;1.80;0.90;;;4.80;99.90;;;;;;6173892;23;20193;-91
2022/12/08 07:59:39;;;;;;;1.53;0.80;;;4.70;99.90;;;;;;6198810;23;20212;-91
2022/12/08 08:02:18;;;;;;;0.73;0.73;;;4.80;99.90;;;;;;6196941;23;20168;-90
2022/12/08 08:04:55;;;;;;;0.83;0.80;;;4.70;99.90;;;;;;6198388;23;20211;-91
2022/12/08 08:07:28;;;;;;;1.03;0.80;;;4.70;99.90;;;;;;6195831;23;20197;-91
2022/12/08 08:10:00;;;;;;;1.63;1.03;;;4.70;99.90;;;;;;6196425;23;20213;-91
2022/12/08 08:12:32;;;;;;;1.43;0.90;;;4.70;99.90;;;;;;6195314;23;20197;-91
2022/12/08 08:15:06;;;;;;;1.20;1.00;;;4.70;99.90;;;;;;6195191;23;20176;-91
2022/12/08 08:17:40;;;;;;;1.10;1.00;;;4.70;99.90;;;;;;6198233;23;20514;-91
2022/12/08 08:20:13;;;;;;;1.03;0.87;;;4.70;99.90;;;;;;6198075;23;20188;-92
2022/12/08 08:22:45;;;;;;;1.07;0.70;;;4.60;99.90;;;;;;6199309;23;20223;-90
2022/12/08 08:25:18;;;;;;;0.80;0.70;;;4.70;99.90;;;;;;6196343;23;20204;-90
2022/12/08 08:27:49;;;;;;;2.13;0.83;;;4.60;99.90;;;;;;6197971;23;20176;-90
2022/12/08 08:30:21;;;;;;;0.60;0.60;;;4.70;99.90;;;;;;6202659;23;20165;-91
2022/12/08 08:32:55;;;;;;;1.43;0.83;;;4.60;99.90;;;;;;6209131;23;20220;-91
2022/12/08 08:35:26;;;;;;;0.83;0.70;;;4.70;99.90;;;;;;6209076;23;20169;-90
2022/12/08 08:37:58;;;;;;;1.10;1.00;;;4.70;99.90;;;;;;6207280;23;20160;-90
2022/12/08 08:40:31;;;;;;;0.70;0.70;;;4.70;99.90;;;;;;6207595;23;20201;-90
2022/12/08 08:43:03;;;;;;;1.20;0.83;;;4.80;99.90;;;;;;6194246;23;20180;-90
2022/12/08 08:45:35;;;;;;;0.90;0.87;;;4.80;99.90;;;;;;6194501;23;20169;-91
